createdAt,value
2023-05-25T00:02:25.936Z,101561.75
2023-05-25T00:05:28.595Z,101561.16
2023-05-25T00:08:30.693Z,101562.91
2023-05-25T00:11:32.629Z,101558.00
2023-05-25T00:14:34.361Z,101562.44
2023-05-25T00:17:37.330Z,101561.56
2023-05-25T00:20:39.645Z,101565.66
2023-05-25T00:23:42.544Z,101567.41
2023-05-25T00:26:44.260Z,101563.09
2023-05-25T00:29:46.478Z,101570.81
2023-05-25T00:32:49.437Z,101564.03
2023-05-25T00:35:52.698Z,101559.91
2023-05-25T00:38:54.792Z,101562.97
2023-05-25T00:41:59.569Z,101566.63
2023-05-25T00:45:01.566Z,101567.63
2023-05-25T00:48:04.865Z,101566.03
2023-05-25T00:51:07.545Z,101561.13
2023-05-25T00:54:09.245Z,101568.63
2023-05-25T00:57:15.094Z,101555.47
2023-05-25T01:00:17.974Z,101563.19
2023-05-25T01:03:23.298Z,101560.78
2023-05-25T01:06:32.135Z,101563.53
2023-05-25T01:09:38.497Z,101562.53
2023-05-25T01:12:42.398Z,101569.28
2023-05-25T01:15:47.130Z,101572.78
2023-05-25T01:18:49.200Z,101569.69
2023-05-25T01:21:51.024Z,101567.94
2023-05-25T01:25:05.229Z,101564.53
2023-05-25T01:28:11.545Z,101567.16
2023-05-25T01:31:16.136Z,101568.25
2023-05-25T01:34:19.499Z,101566.66
2023-05-25T01:37:24.245Z,101569.31
2023-05-25T01:40:26.937Z,101563.31
2023-05-25T01:43:28.756Z,101565.81
2023-05-25T01:46:38.799Z,101565.75
2023-05-25T01:49:46.946Z,101560.75
2023-05-25T01:52:54.955Z,101561.63
2023-05-25T01:56:03.409Z,101567.88
2023-05-25T01:59:11.226Z,101562.34
2023-05-25T02:02:16.195Z,101553.25
2023-05-25T02:05:20.660Z,101553.69
2023-05-25T02:08:22.455Z,101554.09
2023-05-25T02:11:24.701Z,101554.25
2023-05-25T02:14:26.814Z,101559.78
2023-05-25T02:17:30.404Z,101569.38
2023-05-25T02:20:32.832Z,101558.44
2023-05-25T02:23:34.690Z,101564.69
2023-05-25T02:26:37.325Z,101549.91
2023-05-25T02:29:39.443Z,101551.22
2023-05-25T02:32:44.365Z,101557.25
2023-05-25T02:35:47.483Z,101566.72
2023-05-25T02:38:52.545Z,101572.44
2023-05-25T02:41:54.737Z,101570.91
2023-05-25T02:44:57.359Z,101566.66
2023-05-25T02:47:59.539Z,101565.34
2023-05-25T02:51:03.756Z,101567.59
2023-05-25T02:54:06.062Z,101574.13
2023-05-25T02:57:09.256Z,101568.75
2023-05-25T03:00:12.553Z,101572.56
2023-05-25T03:03:18.938Z,101578.66
2023-05-25T03:06:27.273Z,101581.66
2023-05-25T03:09:36.745Z,101582.16
2023-05-25T03:12:39.542Z,101587.47
2023-05-25T03:15:42.838Z,101585.81
2023-05-25T03:18:45.805Z,101579.00
2023-05-25T03:21:47.937Z,101595.31
2023-05-25T03:24:50.314Z,101591.72
2023-05-25T03:27:54.606Z,101584.75
2023-05-25T03:30:57.999Z,101588.22
2023-05-25T03:33:59.894Z,101586.41
2023-05-25T03:37:02.253Z,101586.22
2023-05-25T03:40:05.149Z,101597.31
2023-05-25T03:43:08.710Z,101598.81
2023-05-25T03:46:11.910Z,101598.41
2023-05-25T03:49:14.351Z,101600.97
2023-05-25T03:52:16.958Z,101602.38
2023-05-25T03:55:19.812Z,101599.81
2023-05-25T03:58:22.166Z,101608.13
2023-05-25T04:01:26.608Z,101608.72
2023-05-25T04:04:34.805Z,101616.88
2023-05-25T04:07:37.370Z,101612.13
2023-05-25T04:10:39.413Z,101614.72
2023-05-25T04:13:41.700Z,101607.13
2023-05-25T04:16:46.238Z,101609.47
2023-05-25T04:19:50.057Z,101609.13
2023-05-25T04:22:52.174Z,101611.44
2023-05-25T04:25:54.695Z,101611.00
2023-05-25T04:28:58.235Z,101609.81
2023-05-25T04:32:09.711Z,101617.41
2023-05-25T04:35:49.354Z,101622.41
2023-05-25T04:38:55.002Z,101624.63
2023-05-25T04:41:58.535Z,101625.31
2023-05-25T04:45:00.860Z,101625.78
2023-05-25T04:48:03.650Z,101634.28
2023-05-25T04:51:06.725Z,101641.13
2023-05-25T04:54:09.700Z,101648.34
2023-05-25T04:57:12.021Z,101641.25
2023-05-25T05:00:15.372Z,101629.72
2023-05-25T05:03:18.620Z,101630.19
2023-05-25T05:06:22.104Z,101629.47
2023-05-25T05:09:24.663Z,101635.84
2023-05-25T05:12:29.228Z,101635.31
2023-05-25T05:15:33.603Z,101639.53
2023-05-25T05:18:35.886Z,101645.81
2023-05-25T05:21:37.736Z,101642.19
2023-05-25T05:24:42.543Z,101641.72
2023-05-25T05:27:50.095Z,101646.91
2023-05-25T05:30:58.697Z,101650.50
2023-05-25T05:34:01.145Z,101657.25
2023-05-25T05:37:03.169Z,101655.84
2023-05-25T05:40:05.714Z,101669.72
2023-05-25T05:43:16.248Z,101673.69
2023-05-25T05:46:18.341Z,101665.03
2023-05-25T05:49:20.448Z,101667.06
2023-05-25T05:52:28.739Z,101677.84
2023-05-25T05:55:31.024Z,101677.09
2023-05-25T05:58:33.243Z,101689.16
2023-05-25T06:01:36.769Z,101697.19
2023-05-25T06:04:39.179Z,101699.25
2023-05-25T06:07:43.061Z,101697.94
2023-05-25T06:10:45.294Z,101702.84
2023-05-25T06:13:47.224Z,101714.13
2023-05-25T06:16:51.272Z,101713.38
2023-05-25T06:19:53.567Z,101719.47
2023-05-25T06:22:55.470Z,101716.16
2023-05-25T06:25:57.153Z,101713.38
2023-05-25T06:28:59.351Z,101718.94
2023-05-25T06:32:01.929Z,101722.06
2023-05-25T06:35:04.802Z,101720.22
2023-05-25T06:38:07.589Z,101732.06
2023-05-25T06:41:13.223Z,101732.44
2023-05-25T06:44:15.332Z,101730.19
2023-05-25T06:47:21.859Z,101736.94
2023-05-25T06:50:24.153Z,101727.41
2023-05-25T06:53:26.281Z,101733.88
2023-05-25T06:56:28.104Z,101741.38
2023-05-25T06:59:29.926Z,101744.66
2023-05-25T07:02:33.166Z,101742.84
2023-05-25T07:05:35.111Z,101742.53
2023-05-25T07:08:37.423Z,101735.63
2023-05-25T07:11:39.378Z,101743.56
2023-05-25T07:14:41.429Z,101750.00
2023-05-25T07:17:43.481Z,101748.19
2023-05-25T07:20:45.849Z,101750.19
2023-05-25T07:23:48.159Z,101745.38
2023-05-25T07:26:50.541Z,101750.66
2023-05-25T07:29:52.759Z,101748.78
2023-05-25T07:32:54.766Z,101745.41
2023-05-25T07:35:58.889Z,101743.00
2023-05-25T07:39:01.561Z,101741.25
2023-05-25T07:42:04.073Z,101750.66
2023-05-25T07:45:06.987Z,101752.13
2023-05-25T07:48:12.153Z,101746.69
2023-05-25T07:51:14.016Z,101742.84
2023-05-25T07:54:16.263Z,101747.72
2023-05-25T07:57:18.723Z,101750.22
2023-05-25T08:00:21.268Z,101751.06
2023-05-25T08:03:31.814Z,101750.34
2023-05-25T08:06:34.491Z,101752.94
2023-05-25T08:09:36.950Z,101752.16
2023-05-25T08:12:49.055Z,101757.47
2023-05-25T08:15:52.458Z,101756.56
2023-05-25T08:18:54.404Z,101757.13
2023-05-25T08:21:57.701Z,101763.94
2023-05-25T08:25:00.295Z,101757.06
2023-05-25T08:28:02.343Z,101758.47
2023-05-25T08:31:05.246Z,101765.91
2023-05-25T08:34:07.428Z,101765.06
2023-05-25T08:37:09.505Z,101769.63
2023-05-25T08:40:17.072Z,101771.25
2023-05-25T08:43:19.106Z,101778.78
2023-05-25T08:46:36.992Z,101773.28
2023-05-25T08:49:41.224Z,101770.44
2023-05-25T08:52:47.558Z,101774.19
2023-05-25T08:55:52.016Z,101772.78
2023-05-25T08:59:09.529Z,101771.69
2023-05-25T09:02:21.375Z,101779.78
2023-05-25T09:05:24.304Z,101784.88
2023-05-25T09:08:27.385Z,101783.03
2023-05-25T09:11:38.572Z,101773.22
2023-05-25T09:14:48.077Z,101777.47
2023-05-25T09:17:55.852Z,101779.97
2023-05-25T09:20:59.390Z,101786.84
2023-05-25T09:24:02.071Z,101785.78
2023-05-25T09:27:05.751Z,101789.22
2023-05-25T09:30:08.874Z,101780.91
2023-05-25T09:33:17.640Z,101789.69
2023-05-25T09:36:22.166Z,101790.50
2023-05-25T09:39:25.979Z,101783.75
2023-05-25T09:42:28.045Z,101790.75
2023-05-25T09:45:30.825Z,101794.31
2023-05-25T09:48:33.036Z,101792.91
2023-05-25T09:51:37.285Z,101797.97
2023-05-25T09:54:39.644Z,101794.59
2023-05-25T09:57:43.299Z,101795.84
2023-05-25T10:00:46.709Z,101808.22
2023-05-25T10:04:02.791Z,101801.94
2023-05-25T10:07:11.428Z,101809.66
2023-05-25T10:10:16.849Z,101806.44
2023-05-25T10:13:27.663Z,101806.34
2023-05-25T10:16:33.517Z,101811.22
2023-05-25T10:19:54.029Z,101805.22
2023-05-25T10:23:15.138Z,101813.59
2023-05-25T10:26:23.962Z,101816.09
2023-05-25T10:29:29.635Z,101806.56
2023-05-25T10:32:32.897Z,101810.31
2023-05-25T10:35:50.810Z,101817.47
2023-05-25T10:38:58.255Z,101801.72
2023-05-25T10:42:02.230Z,101808.16
2023-05-25T10:45:07.126Z,101810.63
2023-05-25T10:48:10.839Z,101804.59
2023-05-25T10:51:14.337Z,101799.56
2023-05-25T10:54:16.186Z,101808.31
2023-05-25T10:57:20.463Z,101800.47
2023-05-25T11:00:22.697Z,101806.38
2023-05-25T11:03:45.182Z,101807.88
2023-05-25T11:06:50.625Z,101799.25
2023-05-25T11:09:58.716Z,101801.66
2023-05-25T11:13:24.985Z,101807.47
2023-05-25T11:16:36.187Z,101806.88
2023-05-25T11:19:59.390Z,101807.53
2023-05-25T11:23:33.503Z,101813.66
2023-05-25T11:26:47.191Z,101817.84
2023-05-25T11:30:31.779Z,101800.97
2023-05-25T11:33:42.198Z,101794.31
2023-05-25T11:36:46.180Z,101798.91
2023-05-25T11:40:26.619Z,101792.84
2023-05-25T11:43:29.997Z,101793.06
2023-05-25T11:46:57.308Z,101797.34
2023-05-25T11:50:31.226Z,101786.72
2023-05-25T11:53:45.326Z,101792.41
2023-05-25T11:57:20.332Z,101791.66
2023-05-25T12:00:43.905Z,101792.34
2023-05-25T12:03:48.165Z,101794.00
2023-05-25T12:06:50.096Z,101791.50
2023-05-25T12:09:53.056Z,101789.00
2023-05-25T12:12:58.626Z,101794.13
2023-05-25T12:16:01.756Z,101785.25
2023-05-25T12:19:04.485Z,101789.34
2023-05-25T12:22:07.160Z,101789.66
2023-05-25T12:25:11.568Z,101774.94
2023-05-25T12:28:19.176Z,101771.88
2023-05-25T12:31:26.131Z,101760.59
2023-05-25T12:34:35.211Z,101755.94
2023-05-25T12:37:37.625Z,101761.66
2023-05-25T12:40:40.944Z,101755.34
2023-05-25T12:43:46.734Z,101753.03
2023-05-25T12:46:50.355Z,101748.47
2023-05-25T12:50:10.156Z,101756.59
2023-05-25T12:53:22.728Z,101757.22
2023-05-25T12:56:26.614Z,101752.91
2023-05-25T12:59:31.732Z,101757.13
2023-05-25T13:02:35.382Z,101753.09
2023-05-25T13:05:42.056Z,101762.22
2023-05-25T13:08:44.417Z,101739.81
2023-05-25T13:11:46.570Z,101746.78
2023-05-25T13:14:50.936Z,101744.28
2023-05-25T13:18:05.633Z,101743.97
2023-05-25T13:21:11.461Z,101740.94
2023-05-25T13:24:26.093Z,101734.72
2023-05-25T13:27:28.950Z,101731.75
2023-05-25T13:30:32.331Z,101735.75
2023-05-25T13:33:34.825Z,101726.13
2023-05-25T13:36:39.999Z,101735.53
2023-05-25T13:39:43.968Z,101742.03
2023-05-25T13:42:50.239Z,101728.88
2023-05-25T13:45:52.650Z,101730.94
2023-05-25T13:48:55.093Z,101731.16
2023-05-25T13:52:00.688Z,101723.78
2023-05-25T13:55:08.190Z,101722.59
2023-05-25T13:58:10.518Z,101718.38
2023-05-25T14:01:17.546Z,101708.25
2023-05-25T14:04:20.070Z,101712.00
2023-05-25T14:07:22.458Z,101707.19
2023-05-25T14:10:25.195Z,101708.28
2023-05-25T14:13:27.182Z,101698.84
2023-05-25T14:16:29.291Z,101710.00
2023-05-25T14:19:31.346Z,101704.03
2023-05-25T14:22:36.446Z,101691.94
2023-05-25T14:25:38.527Z,101704.34
2023-05-25T14:28:40.713Z,101694.31
2023-05-25T14:31:42.915Z,101694.28
2023-05-25T14:34:45.765Z,101699.22
2023-05-25T14:37:48.311Z,101696.66
2023-05-25T14:40:50.574Z,101690.66
2023-05-25T14:43:52.608Z,101692.50
2023-05-25T14:46:55.333Z,101684.44
2023-05-25T14:49:57.496Z,101694.09
2023-05-25T14:52:59.613Z,101696.91
2023-05-25T14:56:03.707Z,101701.56
2023-05-25T14:59:06.546Z,101700.44
2023-05-25T15:02:08.901Z,101691.56
2023-05-25T15:05:10.818Z,101690.38
2023-05-25T15:08:13.000Z,101699.44
2023-05-25T15:11:20.933Z,101699.44
2023-05-25T15:14:23.195Z,101691.69
2023-05-25T15:17:25.306Z,101700.41
2023-05-25T15:20:30.597Z,101687.13
2023-05-25T15:23:35.498Z,101683.53
2023-05-25T15:26:37.576Z,101685.25
2023-05-25T15:29:39.721Z,101680.00
2023-05-25T15:32:42.178Z,101681.13
2023-05-25T15:35:44.517Z,101681.28
2023-05-25T15:38:49.038Z,101676.84
2023-05-25T15:41:51.747Z,101676.06
2023-05-25T15:44:53.836Z,101670.00
2023-05-25T15:47:55.992Z,101669.78
2023-05-25T15:50:58.261Z,101665.59
2023-05-25T15:54:00.165Z,101665.06
2023-05-25T15:57:02.728Z,101664.22
2023-05-25T16:00:05.618Z,101663.97
2023-05-25T16:03:10.431Z,101670.78
2023-05-25T16:06:12.842Z,101675.41
2023-05-25T16:09:15.208Z,101665.41
2023-05-25T16:12:17.372Z,101663.41
2023-05-25T16:15:20.878Z,101659.88
2023-05-25T16:18:24.267Z,101667.66
2023-05-25T16:21:27.100Z,101662.06
2023-05-25T16:24:29.247Z,101656.94
2023-05-25T16:27:31.785Z,101662.66
2023-05-25T16:30:33.955Z,101657.91
2023-05-25T16:33:36.377Z,101656.44
2023-05-25T16:36:38.470Z,101653.69
2023-05-25T16:39:40.714Z,101656.97
2023-05-25T16:42:42.900Z,101645.91
2023-05-25T16:45:45.018Z,101648.88
2023-05-25T16:48:47.512Z,101648.91
2023-05-25T16:51:50.660Z,101643.81
2023-05-25T16:54:52.615Z,101648.81
2023-05-25T16:57:54.876Z,101647.91
2023-05-25T17:00:56.919Z,101646.09
2023-05-25T17:03:59.346Z,101646.84
2023-05-25T17:07:01.411Z,101639.19
2023-05-25T17:10:03.700Z,101651.16
2023-05-25T17:13:05.720Z,101648.63
2023-05-25T17:16:07.967Z,101652.72
2023-05-25T17:19:11.201Z,101654.94
2023-05-25T17:22:13.058Z,101653.84
2023-05-25T17:25:15.074Z,101643.75
2023-05-25T17:28:17.019Z,101646.69
2023-05-25T17:31:19.529Z,101633.41
2023-05-25T17:34:21.987Z,101636.13
2023-05-25T17:37:26.455Z,101645.41
2023-05-25T17:40:28.418Z,101641.47
2023-05-25T17:43:32.111Z,101646.34
2023-05-25T17:46:33.972Z,101653.22
2023-05-25T17:49:36.030Z,101649.91
2023-05-25T17:52:37.899Z,101644.97
2023-05-25T17:55:40.132Z,101647.16
2023-05-25T17:58:47.556Z,101638.63
2023-05-25T18:01:50.360Z,101650.75
2023-05-25T18:04:52.591Z,101651.28
2023-05-25T18:07:54.952Z,101649.78
2023-05-25T18:10:57.475Z,101651.97
2023-05-25T18:14:05.824Z,101642.47
2023-05-25T18:17:07.973Z,101645.78
2023-05-25T18:20:11.496Z,101648.50
2023-05-25T18:23:14.592Z,101655.63
2023-05-25T18:26:16.597Z,101651.31
2023-05-25T18:29:18.913Z,101654.75
2023-05-25T18:32:21.072Z,101669.06
2023-05-25T18:35:25.948Z,101670.00
2023-05-25T18:38:27.831Z,101660.16
2023-05-25T18:41:29.892Z,101667.19
2023-05-25T18:44:35.539Z,101658.31
2023-05-25T18:47:37.553Z,101665.97
2023-05-25T18:50:41.893Z,101666.44
2023-05-25T18:53:44.993Z,101666.91
2023-05-25T18:56:47.432Z,101676.06
2023-05-25T18:59:52.394Z,101670.22
2023-05-25T19:02:54.411Z,101682.16
2023-05-25T19:05:56.549Z,101676.72
2023-05-25T19:08:58.409Z,101680.97
2023-05-25T19:12:01.152Z,101681.91
2023-05-25T19:15:04.560Z,101686.06
2023-05-25T19:18:06.517Z,101691.78
2023-05-25T19:21:08.581Z,101692.63
2023-05-25T19:24:10.711Z,101697.97
2023-05-25T19:27:13.009Z,101709.78
2023-05-25T19:30:15.197Z,101706.09
2023-05-25T19:33:22.756Z,101704.75
2023-05-25T19:36:24.729Z,101707.69
2023-05-25T19:39:26.512Z,101717.88
2023-05-25T19:42:28.511Z,101717.47
2023-05-25T19:45:30.733Z,101716.03
2023-05-25T19:48:33.045Z,101716.34
2023-05-25T19:51:34.930Z,101711.19
2023-05-25T19:54:36.904Z,101716.22
2023-05-25T19:57:38.679Z,101718.44
2023-05-25T20:00:40.471Z,101721.06
2023-05-25T20:03:44.462Z,101723.25
2023-05-25T20:06:46.546Z,101725.03
2023-05-25T20:09:48.336Z,101736.41
2023-05-25T20:12:50.154Z,101733.22
2023-05-25T20:15:52.092Z,101730.19
2023-05-25T20:18:53.897Z,101735.00
2023-05-25T20:21:55.877Z,101737.91
2023-05-25T20:25:01.049Z,101742.47
2023-05-25T20:28:03.375Z,101741.34
2023-05-25T20:31:06.497Z,101749.09
2023-05-25T20:34:08.420Z,101744.13
2023-05-25T20:37:10.218Z,101748.56
2023-05-25T20:40:12.180Z,101755.44
2023-05-25T20:43:14.057Z,101763.31
2023-05-25T20:46:15.928Z,101764.41
2023-05-25T20:49:18.037Z,101758.16
2023-05-25T20:52:21.237Z,101757.28
2023-05-25T20:55:23.881Z,101760.28
2023-05-25T20:58:25.707Z,101759.84
2023-05-25T21:01:27.686Z,101765.41
2023-05-25T21:04:31.668Z,101772.47
2023-05-25T21:07:33.680Z,101763.22
2023-05-25T21:10:35.789Z,101776.47
2023-05-25T21:13:37.727Z,101770.84
2023-05-25T21:16:39.928Z,101763.66
2023-05-25T21:19:41.939Z,101765.72
2023-05-25T21:22:43.732Z,101763.81
2023-05-25T21:25:45.912Z,101771.25
2023-05-25T21:28:48.036Z,101778.50
2023-05-25T21:31:52.190Z,101776.09
2023-05-25T21:34:54.926Z,101774.78
2023-05-25T21:37:56.937Z,101779.03
2023-05-25T21:41:01.386Z,101777.03
2023-05-25T21:44:03.177Z,101777.59
2023-05-25T21:47:05.432Z,101785.56
2023-05-25T21:50:13.036Z,101785.56
2023-05-25T21:53:14.831Z,101783.50
2023-05-25T21:56:16.785Z,101792.28
2023-05-25T21:59:18.616Z,101797.66
2023-05-25T22:02:21.291Z,101795.16
2023-05-25T22:05:23.525Z,101797.94
2023-05-25T22:08:25.395Z,101799.84
2023-05-25T22:11:27.691Z,101797.63
2023-05-25T22:14:29.439Z,101801.22
2023-05-25T22:17:31.106Z,101805.84
2023-05-25T22:20:33.094Z,101808.72
2023-05-25T22:23:35.348Z,101800.28
2023-05-25T22:26:37.072Z,101803.72
2023-05-25T22:29:45.005Z,101806.81
2023-05-25T22:32:47.067Z,101805.25
2023-05-25T22:35:51.221Z,101805.31
2023-05-25T22:38:53.356Z,101804.50
2023-05-25T22:41:54.957Z,101802.28
2023-05-25T22:44:56.943Z,101807.19
2023-05-25T22:47:58.937Z,101810.03
2023-05-25T22:51:00.693Z,101818.16
2023-05-25T22:54:02.799Z,101807.97
2023-05-25T22:57:04.862Z,101814.88
2023-05-25T23:00:07.661Z,101815.16
2023-05-25T23:03:09.571Z,101817.00
2023-05-25T23:06:14.581Z,101813.53
2023-05-25T23:09:16.453Z,101807.56
2023-05-25T23:12:18.824Z,101811.25
2023-05-25T23:15:22.658Z,101802.81
2023-05-25T23:18:24.589Z,101807.41
2023-05-25T23:21:26.563Z,101810.34
2023-05-25T23:24:30.615Z,101813.66
2023-05-25T23:27:33.428Z,101801.66
2023-05-25T23:30:35.765Z,101797.56
2023-05-25T23:33:37.626Z,101795.97
2023-05-25T23:36:40.744Z,101792.91
2023-05-25T23:39:42.532Z,101786.16
2023-05-25T23:42:45.167Z,101794.16
2023-05-25T23:45:47.639Z,101801.91
2023-05-25T23:48:49.824Z,101804.75
2023-05-25T23:51:51.975Z,101803.97
2023-05-25T23:54:54.152Z,101796.56
2023-05-25T23:57:56.157Z,101803.16
